Time;durP1;ratioP1;P1;durP2;ratioP2;P2;SDS_P1;SDS_P2;PMS_P1;PMS_P2;Temp;Humidity;BMP_temperature;BMP_pressure;BME280_temperature;BME280_humidity;BME280_pressure;Samples;Min_cycle;Max_cycle;Signal;HPM_P1;HPM_P2
2022/01/08 00:01:19;;;;;;;24.00;15.32;;;;;;;;;;4997288;28;20018;-77
2022/01/08 00:03:44;;;;;;;24.95;16.63;;;;;;;;;;5013343;28;20537;-77
2022/01/08 00:06:12;;;;;;;24.33;16.73;;;;;;;;;;4998115;28;20029;-77
2022/01/08 00:08:37;;;;;;;28.75;18.10;;;;;;;;;;4998716;28;20408;-76
2022/01/08 00:11:02;;;;;;;25.83;17.48;;;;;;;;;;4997321;28;20048;-77
2022/01/08 00:13:28;;;;;;;25.77;16.95;;;;;;;;;;4997230;28;20691;-76
2022/01/08 00:15:53;;;;;;;29.52;18.42;;;;;;;;;;4998193;28;20100;-77
2022/01/08 00:18:19;;;;;;;29.65;20.25;;;;;;;;;;4997820;28;20453;-76
2022/01/08 00:20:44;;;;;;;27.30;17.17;;;;;;;;;;4997198;28;20025;-77
2022/01/08 00:23:10;;;;;;;27.83;19.55;;;;;;;;;;5011713;28;20080;-77
2022/01/08 00:25:36;;;;;;;36.08;20.23;;;;;;;;;;4995294;28;20033;-76
2022/01/08 00:28:01;;;;;;;31.48;19.73;;;;;;;;;;4996719;28;20025;-77
2022/01/08 00:30:30;;;;;;;38.53;22.65;;;;;;;;;;4995285;28;20095;-77
2022/01/08 00:32:56;;;;;;;27.95;18.40;;;;;;;;;;4997305;28;20025;-77
2022/01/08 00:35:23;;;;;;;34.78;20.52;;;;;;;;;;4996637;28;20485;-77
2022/01/08 00:37:48;;;;;;;34.33;21.33;;;;;;;;;;4996852;28;20026;-77
2022/01/08 00:40:14;;;;;;;32.63;19.80;;;;;;;;;;4996420;28;20106;-77
2022/01/08 00:42:39;;;;;;;31.10;19.83;;;;;;;;;;4994725;28;20101;-77
2022/01/08 00:45:05;;;;;;;29.17;19.10;;;;;;;;;;4996878;28;20065;-77
2022/01/08 00:47:31;;;;;;;43.55;24.98;;;;;;;;;;4996938;28;20026;-77
2022/01/08 00:49:57;;;;;;;36.67;21.23;;;;;;;;;;4996938;28;20034;-77
2022/01/08 00:52:22;;;;;;;54.58;28.23;;;;;;;;;;4996238;28;20056;-77
2022/01/08 00:54:47;;;;;;;30.25;19.50;;;;;;;;;;4995625;28;20104;-77
2022/01/08 00:57:13;;;;;;;42.15;24.73;;;;;;;;;;5011539;28;20029;-77
2022/01/08 00:59:38;;;;;;;49.30;26.67;;;;;;;;;;4996214;28;20389;-76
2022/01/08 01:02:03;;;;;;;42.63;22.05;;;;;;;;;;4995781;28;20108;-77
2022/01/08 01:04:29;;;;;;;34.45;19.02;;;;;;;;;;4994678;28;20380;-77
2022/01/08 01:06:54;;;;;;;40.05;21.48;;;;;;;;;;4994569;28;20026;-77
2022/01/08 01:09:20;;;;;;;47.97;25.65;;;;;;;;;;4994756;28;20487;-76
2022/01/08 01:11:45;;;;;;;34.13;19.75;;;;;;;;;;4995854;28;20025;-76
2022/01/08 01:14:10;;;;;;;42.35;21.90;;;;;;;;;;4996360;28;20041;-76
2022/01/08 01:16:36;;;;;;;53.53;26.73;;;;;;;;;;4995514;28;20523;-77
2022/01/08 01:19:03;;;;;;;54.50;25.63;;;;;;;;;;4996824;28;20101;-76
2022/01/08 01:21:28;;;;;;;96.00;40.00;;;;;;;;;;4996540;28;20321;-76
2022/01/08 01:23:54;;;;;;;40.85;20.95;;;;;;;;;;4995976;28;20021;-77
2022/01/08 01:26:24;;;;;;;37.97;20.30;;;;;;;;;;4996415;28;20022;-77
2022/01/08 01:47:11;;;;;;;29.52;17.98;;;;;;;;;;4995618;28;20125;-76
2022/01/08 01:49:42;;;;;;;25.45;15.82;;;;;;;;;;4993851;28;20129;-77
2022/01/08 01:52:08;;;;;;;29.35;18.38;;;;;;;;;;4995345;28;20029;-76
2022/01/08 01:54:34;;;;;;;29.90;17.73;;;;;;;;;;4995623;28;20052;-77
2022/01/08 01:57:01;;;;;;;32.70;18.85;;;;;;;;;;4994922;28;20018;-77
2022/01/08 01:59:27;;;;;;;27.75;16.60;;;;;;;;;;4996771;28;20623;-77
2022/01/08 02:01:53;;;;;;;26.05;16.27;;;;;;;;;;4995485;28;20021;-77
2022/01/08 02:04:19;;;;;;;33.70;18.08;;;;;;;;;;4994483;28;20038;-76
2022/01/08 02:06:44;;;;;;;25.90;16.23;;;;;;;;;;4994005;28;20022;-76
2022/01/08 02:09:09;;;;;;;29.38;17.13;;;;;;;;;;4995221;28;20101;-76
2022/01/08 02:11:53;;;;;;;27.70;16.30;;;;;;;;;;4995131;28;20454;-76
2022/01/08 02:14:19;;;;;;;32.75;18.98;;;;;;;;;;4996207;28;20381;-77
2022/01/08 02:16:44;;;;;;;26.92;17.38;;;;;;;;;;4996115;28;20032;-77
2022/01/08 02:19:09;;;;;;;28.92;18.27;;;;;;;;;;4996537;28;20018;-77
2022/01/08 02:21:35;;;;;;;30.10;16.83;;;;;;;;;;4994185;28;20352;-76
2022/01/08 02:24:00;;;;;;;33.97;19.90;;;;;;;;;;4993468;28;20036;-77
2022/01/08 02:26:25;;;;;;;29.70;17.75;;;;;;;;;;4995551;28;20033;-77
2022/01/08 02:28:51;;;;;;;25.23;15.80;;;;;;;;;;4994472;28;20113;-77
2022/01/08 02:31:20;;;;;;;25.15;15.65;;;;;;;;;;4995303;28;20042;-77
2022/01/08 02:33:46;;;;;;;28.38;17.00;;;;;;;;;;4995867;28;20032;-77
2022/01/08 02:36:11;;;;;;;24.48;15.88;;;;;;;;;;4995264;28;20030;-77
2022/01/08 02:38:36;;;;;;;26.75;16.65;;;;;;;;;;4993224;28;20100;-78
2022/01/08 02:41:04;;;;;;;27.42;17.15;;;;;;;;;;4994608;28;20539;-77
2022/01/08 02:43:33;;;;;;;26.67;15.60;;;;;;;;;;4993044;28;20050;-77
2022/01/08 02:45:59;;;;;;;31.13;16.85;;;;;;;;;;4993546;28;20033;-78
2022/01/08 02:48:24;;;;;;;29.60;18.17;;;;;;;;;;4994564;28;20032;-78
2022/01/08 02:50:49;;;;;;;24.88;15.85;;;;;;;;;;4995819;28;20104;-77
2022/01/08 02:53:15;;;;;;;29.98;17.13;;;;;;;;;;4993089;28;20088;-77
2022/01/08 02:55:40;;;;;;;27.38;16.48;;;;;;;;;;4995216;28;20093;-79
2022/01/08 02:58:06;;;;;;;23.85;15.73;;;;;;;;;;4995216;28;20057;-79
2022/01/08 03:00:31;;;;;;;27.90;17.10;;;;;;;;;;5009723;28;20432;-80
2022/01/08 03:02:56;;;;;;;27.02;16.77;;;;;;;;;;4993435;28;20121;-79
2022/01/08 03:05:22;;;;;;;25.65;15.35;;;;;;;;;;4993414;28;20436;-79
2022/01/08 03:07:49;;;;;;;24.92;15.50;;;;;;;;;;4993029;28;20026;-81
2022/01/08 03:10:15;;;;;;;28.30;15.98;;;;;;;;;;4993764;28;20041;-79
2022/01/08 03:12:41;;;;;;;27.13;15.95;;;;;;;;;;4992753;28;20092;-78
2022/01/08 03:15:11;;;;;;;25.02;15.48;;;;;;;;;;4993612;28;20412;-79
2022/01/08 03:17:36;;;;;;;23.88;15.05;;;;;;;;;;4994964;28;20038;-80
2022/01/08 03:20:05;;;;;;;27.35;15.40;;;;;;;;;;4996331;28;20042;-79
2022/01/08 03:22:31;;;;;;;22.35;14.50;;;;;;;;;;4998466;28;20072;-79
2022/01/08 03:24:57;;;;;;;26.77;16.30;;;;;;;;;;4996682;28;20034;-79
2022/01/08 03:27:22;;;;;;;24.90;16.52;;;;;;;;;;4998094;28;20381;-78
2022/01/08 03:29:48;;;;;;;26.77;15.60;;;;;;;;;;4998065;28;20026;-78
2022/01/08 03:32:13;;;;;;;22.45;14.35;;;;;;;;;;4998982;28;20063;-80
2022/01/08 03:34:38;;;;;;;23.33;14.85;;;;;;;;;;4996588;28;20480;-80
2022/01/08 03:37:04;;;;;;;22.92;13.32;;;;;;;;;;4998641;28;20112;-79
2022/01/08 03:39:29;;;;;;;24.77;14.95;;;;;;;;;;4997981;28;20036;-80
2022/01/08 03:41:55;;;;;;;25.90;14.68;;;;;;;;;;4996056;28;20088;-78
2022/01/08 03:44:21;;;;;;;24.15;15.02;;;;;;;;;;4996580;28;20033;-77
2022/01/08 03:46:46;;;;;;;24.42;13.75;;;;;;;;;;4996475;28;20506;-81
2022/01/08 03:49:25;;;;;;;23.60;13.48;;;;;;;;;;4998810;28;20549;-79
2022/01/08 03:51:54;;;;;;;20.13;12.02;;;;;;;;;;4998540;28;20064;-78
2022/01/08 03:54:20;;;;;;;21.23;12.88;;;;;;;;;;4996136;28;20022;-79
2022/01/08 03:56:45;;;;;;;22.70;13.52;;;;;;;;;;4997008;28;20084;-79
2022/01/08 03:59:11;;;;;;;19.67;12.70;;;;;;;;;;4995877;28;20029;-79
2022/01/08 04:01:36;;;;;;;20.65;12.70;;;;;;;;;;4996401;28;20040;-79
2022/01/08 04:04:01;;;;;;;20.42;12.73;;;;;;;;;;4996415;28;20022;-80
2022/01/08 04:06:27;;;;;;;22.67;11.55;;;;;;;;;;4995535;28;20037;-78
2022/01/08 04:08:57;;;;;;;16.35;10.63;;;;;;;;;;4995133;28;20152;-78
2022/01/08 04:11:22;;;;;;;;;;;;;;;;;;4996065;28;20115;-79
2022/01/08 04:13:47;;;;;;;18.37;11.40;;;;;;;;;;4996996;28;20353;-79
2022/01/08 04:16:17;;;;;;;20.40;12.40;;;;;;;;;;4997151;28;20024;-78
2022/01/08 04:18:43;;;;;;;18.48;12.23;;;;;;;;;;4995808;28;20092;-79
2022/01/08 04:23:46;;;;;;;17.70;10.18;;;;;;;;;;4996816;28;20096;-78
2022/01/08 04:26:11;;;;;;;18.13;11.70;;;;;;;;;;4997113;28;20029;-78
2022/01/08 04:28:37;;;;;;;17.02;10.80;;;;;;;;;;4996395;28;20034;-78
2022/01/08 04:31:02;;;;;;;17.20;9.73;;;;;;;;;;4997412;28;20049;-78
2022/01/08 04:33:28;;;;;;;16.40;9.25;;;;;;;;;;4998187;28;20465;-78
2022/01/08 04:35:55;;;;;;;18.45;11.70;;;;;;;;;;4995573;28;20040;-78
2022/01/08 04:38:20;;;;;;;15.77;9.98;;;;;;;;;;4995865;28;20439;-78
2022/01/08 04:40:46;;;;;;;16.52;11.18;;;;;;;;;;4995632;28;20041;-78
2022/01/08 04:43:11;;;;;;;15.70;10.10;;;;;;;;;;4994927;28;20085;-78
2022/01/08 04:45:36;;;;;;;15.65;10.68;;;;;;;;;;4994849;28;20037;-77
2022/01/08 04:48:02;;;;;;;31.23;20.20;;;;;;;;;;4995091;28;20116;-77
2022/01/08 04:50:28;;;;;;;61.78;39.75;;;;;;;;;;4995114;28;20038;-77
2022/01/08 04:52:55;;;;;;;25.98;17.23;;;;;;;;;;4996514;28;20014;-78
2022/01/08 04:55:20;;;;;;;19.45;11.60;;;;;;;;;;4995220;28;20618;-78
2022/01/08 04:57:46;;;;;;;24.45;16.33;;;;;;;;;;4994416;28;20030;-78
2022/01/08 05:00:12;;;;;;;28.63;18.70;;;;;;;;;;4994803;28;20025;-79
2022/01/08 05:02:37;;;;;;;33.85;22.20;;;;;;;;;;4994690;28;20913;-79
2022/01/08 05:05:03;;;;;;;28.50;18.05;;;;;;;;;;4994725;28;20462;-78
2022/01/08 05:07:28;;;;;;;23.85;15.73;;;;;;;;;;4994873;28;20033;-78
2022/01/08 05:09:54;;;;;;;23.27;16.02;;;;;;;;;;4996186;28;20033;-78
2022/01/08 05:12:19;;;;;;;25.52;17.00;;;;;;;;;;4994474;28;20018;-78
2022/01/08 05:14:44;;;;;;;43.88;28.63;;;;;;;;;;4994487;28;20018;-78
2022/01/08 05:17:10;;;;;;;21.10;14.40;;;;;;;;;;4994653;28;20116;-78
2022/01/08 05:22:05;;;;;;;15.52;10.27;;;;;;;;;;4995578;28;20033;-78
2022/01/08 05:24:31;;;;;;;18.92;14.38;;;;;;;;;;4994331;28;20385;-77
2022/01/08 05:26:57;;;;;;;19.95;15.95;;;;;;;;;;4995693;28;20026;-78
2022/01/08 05:29:22;;;;;;;21.35;16.50;;;;;;;;;;4994326;28;20029;-78
2022/01/08 05:31:48;;;;;;;16.52;12.25;;;;;;;;;;4994624;28;20038;-77
2022/01/08 05:34:13;;;;;;;19.05;12.43;;;;;;;;;;4993908;28;20029;-77
2022/01/08 05:36:39;;;;;;;17.58;12.43;;;;;;;;;;4996921;28;20377;-78
2022/01/08 05:39:04;;;;;;;17.98;11.32;;;;;;;;;;4993400;28;20433;-78
2022/01/08 05:41:30;;;;;;;15.90;11.20;;;;;;;;;;4993526;28;20034;-78
2022/01/08 05:43:55;;;;;;;16.92;11.48;;;;;;;;;;4996237;28;20454;-78
2022/01/08 05:46:20;;;;;;;16.60;11.35;;;;;;;;;;4996819;28;20683;-78
2022/01/08 05:48:46;;;;;;;14.07;8.63;;;;;;;;;;4993961;28;20129;-78
2022/01/08 05:51:11;;;;;;;16.73;11.95;;;;;;;;;;4996023;28;20472;-78
2022/01/08 05:53:37;;;;;;;21.77;14.65;;;;;;;;;;4993786;28;20120;-76
2022/01/08 05:56:02;;;;;;;26.05;17.88;;;;;;;;;;4994501;28;20051;-77
2022/01/08 05:58:28;;;;;;;30.25;19.65;;;;;;;;;;4993728;28;20026;-77
2022/01/08 06:00:53;;;;;;;35.97;22.40;;;;;;;;;;4994895;28;20026;-77
2022/01/08 06:03:19;;;;;;;26.45;17.75;;;;;;;;;;4993929;28;20473;-77
2022/01/08 06:05:45;;;;;;;22.65;14.80;;;;;;;;;;4995169;28;20034;-76
2022/01/08 06:08:10;;;;;;;24.65;16.77;;;;;;;;;;4996432;28;20350;-76
2022/01/08 06:10:35;;;;;;;47.50;28.73;;;;;;;;;;4993526;28;20069;-78
2022/01/08 06:13:01;;;;;;;37.55;23.02;;;;;;;;;;4994814;28;20025;-75
2022/01/08 06:15:26;;;;;;;41.63;23.88;;;;;;;;;;4995751;28;20049;-76
2022/01/08 06:17:51;;;;;;;29.35;19.25;;;;;;;;;;4995651;28;20026;-76
2022/01/08 06:20:17;;;;;;;21.88;14.38;;;;;;;;;;4995540;28;20564;-75
2022/01/08 06:22:42;;;;;;;17.23;12.50;;;;;;;;;;4993858;28;20022;-76
2022/01/08 06:25:08;;;;;;;18.33;12.65;;;;;;;;;;4993466;28;20105;-76
2022/01/08 06:27:33;;;;;;;30.33;20.48;;;;;;;;;;4993784;28;20585;-76
2022/01/08 06:29:59;;;;;;;38.45;24.02;;;;;;;;;;5009533;28;20092;-76
2022/01/08 06:32:24;;;;;;;39.72;24.98;;;;;;;;;;4995574;28;20164;-76
2022/01/08 06:34:49;;;;;;;58.92;34.10;;;;;;;;;;4993369;28;20144;-76
2022/01/08 06:37:15;;;;;;;44.35;26.40;;;;;;;;;;4993173;28;20060;-77
2022/01/08 06:39:40;;;;;;;67.00;36.38;;;;;;;;;;4996436;28;20045;-76
2022/01/08 06:42:05;;;;;;;38.53;23.58;;;;;;;;;;4993026;28;20455;-78
2022/01/08 06:44:31;;;;;;;37.33;24.08;;;;;;;;;;4995350;28;20022;-78
2022/01/08 06:46:57;;;;;;;41.95;28.92;;;;;;;;;;4993486;28;20030;-78
2022/01/08 06:49:22;;;;;;;50.25;32.10;;;;;;;;;;4994640;28;20025;-77
2022/01/08 06:51:47;;;;;;;62.92;38.15;;;;;;;;;;4997902;28;20030;-78
2022/01/08 06:54:13;;;;;;;115.93;65.43;;;;;;;;;;4998399;28;20026;-78
2022/01/08 06:56:38;;;;;;;106.32;57.88;;;;;;;;;;4998253;28;20036;-78
2022/01/08 06:59:03;;;;;;;83.15;46.83;;;;;;;;;;4996900;28;20362;-78
2022/01/08 07:01:29;;;;;;;22.92;14.18;;;;;;;;;;4998692;28;20109;-78
2022/01/08 07:03:57;;;;;;;18.17;11.73;;;;;;;;;;4996881;28;20545;-79
2022/01/08 07:06:23;;;;;;;18.92;12.02;;;;;;;;;;4996964;28;20029;-78
2022/01/08 07:08:49;;;;;;;20.50;13.82;;;;;;;;;;4998618;28;20018;-76
2022/01/08 07:11:14;;;;;;;27.05;18.02;;;;;;;;;;4996618;28;20172;-77
2022/01/08 07:13:39;;;;;;;21.58;13.85;;;;;;;;;;4996845;28;20030;-76
2022/01/08 07:16:05;;;;;;;20.10;12.40;;;;;;;;;;4996903;28;20068;-77
2022/01/08 07:18:31;;;;;;;21.27;12.95;;;;;;;;;;4997944;28;20465;-76
2022/01/08 07:20:56;;;;;;;27.52;15.60;;;;;;;;;;4997077;28;20061;-76
2022/01/08 07:23:22;;;;;;;15.77;10.25;;;;;;;;;;4996758;28;20075;-77
2022/01/08 07:25:47;;;;;;;19.45;14.07;;;;;;;;;;4997965;28;20021;-78
2022/01/08 07:28:12;;;;;;;25.25;13.30;;;;;;;;;;4996324;28;20373;-77
2022/01/08 07:30:38;;;;;;;23.52;12.55;;;;;;;;;;4998107;28;20037;-76
2022/01/08 07:33:03;;;;;;;17.83;11.07;;;;;;;;;;4996366;28;20377;-76
2022/01/08 07:35:28;;;;;;;19.80;13.60;;;;;;;;;;4997814;28;20064;-78
2022/01/08 07:37:54;;;;;;;16.08;10.05;;;;;;;;;;4996290;28;20109;-79
2022/01/08 07:40:20;;;;;;;19.13;12.45;;;;;;;;;;4998163;28;20034;-79
2022/01/08 07:42:45;;;;;;;23.48;13.25;;;;;;;;;;4998425;28;20053;-78
2022/01/08 07:45:11;;;;;;;25.10;17.20;;;;;;;;;;4996799;28;20022;-79
2022/01/08 07:47:37;;;;;;;25.13;15.18;;;;;;;;;;4997728;28;20045;-79
2022/01/08 07:50:03;;;;;;;43.10;22.80;;;;;;;;;;4998709;28;20037;-77
2022/01/08 07:52:28;;;;;;;42.90;24.23;;;;;;;;;;4995826;28;20464;-77
2022/01/08 07:54:54;;;;;;;35.13;22.42;;;;;;;;;;4997603;28;20028;-78
2022/01/08 07:57:19;;;;;;;28.02;18.27;;;;;;;;;;4998143;28;20052;-78
2022/01/08 07:59:44;;;;;;;27.55;17.40;;;;;;;;;;4995875;28;20389;-79
2022/01/08 08:02:10;;;;;;;28.05;17.58;;;;;;;;;;4995521;28;20109;-78
2022/01/08 08:04:36;;;;;;;48.58;27.58;;;;;;;;;;4996579;28;20017;-78
2022/01/08 08:07:01;;;;;;;31.08;19.25;;;;;;;;;;4995340;28;20366;-78
2022/01/08 08:09:27;;;;;;;30.30;18.42;;;;;;;;;;4996083;28;20034;-77
2022/01/08 08:11:52;;;;;;;105.53;55.15;;;;;;;;;;5012601;28;20510;-78
2022/01/08 08:14:17;;;;;;;44.67;26.67;;;;;;;;;;5011919;28;20021;-78
2022/01/08 08:16:42;;;;;;;54.75;33.70;;;;;;;;;;4997436;28;20025;-78
2022/01/08 08:19:08;;;;;;;54.15;30.80;;;;;;;;;;4995704;28;20080;-78
2022/01/08 08:21:33;;;;;;;36.05;21.65;;;;;;;;;;4995462;28;20030;-77
2022/01/08 08:24:00;;;;;;;27.55;17.85;;;;;;;;;;4997296;28;20102;-78
2022/01/08 08:26:25;;;;;;;34.25;20.35;;;;;;;;;;4997565;28;20053;-77
2022/01/08 08:28:51;;;;;;;27.50;16.85;;;;;;;;;;4995215;28;20030;-78
2022/01/08 08:31:16;;;;;;;24.20;14.48;;;;;;;;;;4995270;28;20132;-79
2022/01/08 08:33:41;;;;;;;40.38;26.42;;;;;;;;;;4996473;28;20026;-77
2022/01/08 08:36:07;;;;;;;97.43;53.72;;;;;;;;;;4995235;28;20121;-78
2022/01/08 08:38:32;;;;;;;64.75;36.90;;;;;;;;;;4996173;28;20100;-77
2022/01/08 08:40:58;;;;;;;29.52;19.10;;;;;;;;;;4995348;28;20033;-78
2022/01/08 08:43:23;;;;;;;21.17;14.75;;;;;;;;;;4994436;28;20065;-78
2022/01/08 08:45:50;;;;;;;27.65;19.02;;;;;;;;;;4994883;28;20080;-77
2022/01/08 08:48:16;;;;;;;36.03;23.15;;;;;;;;;;4996622;28;20018;-78
2022/01/08 08:50:41;;;;;;;25.63;16.52;;;;;;;;;;4994445;28;20065;-78
2022/01/08 08:53:07;;;;;;;20.20;13.48;;;;;;;;;;4994993;28;20535;-78
2022/01/08 08:55:32;;;;;;;20.42;14.98;;;;;;;;;;4997515;28;20029;-78
2022/01/08 08:57:57;;;;;;;21.80;14.27;;;;;;;;;;4994555;28;20037;-78
2022/01/08 09:00:23;;;;;;;27.08;20.27;;;;;;;;;;4994733;28;20048;-78
2022/01/08 09:02:49;;;;;;;39.33;27.55;;;;;;;;;;4994718;28;20033;-78
2022/01/08 09:05:14;;;;;;;54.17;35.03;;;;;;;;;;4994767;28;20026;-78
2022/01/08 09:07:40;;;;;;;34.55;21.55;;;;;;;;;;4996224;28;20028;-77
2022/01/08 09:10:06;;;;;;;23.88;15.90;;;;;;;;;;4993930;28;20038;-77
2022/01/08 09:12:32;;;;;;;60.85;34.78;;;;;;;;;;4994566;28;20041;-77
2022/01/08 09:14:57;;;;;;;81.90;48.58;;;;;;;;;;4994282;28;20384;-78
2022/01/08 09:17:24;;;;;;;53.33;33.78;;;;;;;;;;4994600;28;20489;-78
2022/01/08 09:19:50;;;;;;;33.35;20.55;;;;;;;;;;4994337;28;20396;-77
2022/01/08 09:22:15;;;;;;;36.00;22.50;;;;;;;;;;5010706;28;20032;-77
2022/01/08 09:24:41;;;;;;;37.30;27.45;;;;;;;;;;4995337;28;20029;-77
2022/01/08 09:27:06;;;;;;;28.85;20.13;;;;;;;;;;4995558;28;20030;-77
2022/01/08 09:29:33;;;;;;;33.95;23.27;;;;;;;;;;4994122;28;20022;-78
2022/01/08 09:31:58;;;;;;;37.35;22.80;;;;;;;;;;4995370;28;20457;-77
2022/01/08 09:34:24;;;;;;;59.47;37.78;;;;;;;;;;4995576;28;20117;-78
2022/01/08 09:36:49;;;;;;;34.40;21.92;;;;;;;;;;4995761;28;20401;-77
2022/01/08 09:39:15;;;;;;;31.77;19.67;;;;;;;;;;4996019;28;20036;-77
2022/01/08 09:41:40;;;;;;;33.42;22.27;;;;;;;;;;4995999;28;20476;-77
2022/01/08 09:44:06;;;;;;;23.55;16.23;;;;;;;;;;4995771;28;20036;-78
2022/01/08 09:46:32;;;;;;;29.83;19.67;;;;;;;;;;4993599;28;20388;-77
2022/01/08 09:48:57;;;;;;;21.52;14.20;;;;;;;;;;4994424;28;20026;-77
2022/01/08 09:51:22;;;;;;;20.17;14.48;;;;;;;;;;4993936;28;20034;-77
2022/01/08 09:53:48;;;;;;;31.10;22.80;;;;;;;;;;4995505;28;20117;-77
2022/01/08 09:56:14;;;;;;;20.90;14.27;;;;;;;;;;4996574;28;20097;-77
2022/01/08 09:58:39;;;;;;;29.45;17.42;;;;;;;;;;4993597;28;20021;-77
2022/01/08 10:01:21;;;;;;;23.90;14.98;;;;;;;;;;4996725;28;20464;-77
2022/01/08 10:03:46;;;;;;;16.27;11.32;;;;;;;;;;4995636;28;20033;-77
2022/01/08 10:06:12;;;;;;;27.63;19.27;;;;;;;;;;4995025;28;20022;-78
2022/01/08 10:08:40;;;;;;;32.08;19.65;;;;;;;;;;4994051;28;20061;-77
2022/01/08 10:11:06;;;;;;;36.63;21.92;;;;;;;;;;4994848;28;20824;-78
2022/01/08 10:13:39;;;;;;;28.85;16.60;;;;;;;;;;4993508;28;20022;-77
2022/01/08 10:18:53;;;;;;;35.78;19.48;;;;;;;;;;4995655;28;20484;-78
2022/01/08 10:21:29;;;;;;;22.38;14.10;;;;;;;;;;4994882;28;20026;-78
2022/01/08 10:24:05;;;;;;;17.27;10.05;;;;;;;;;;4993809;28;20038;-78
2022/01/08 10:26:32;;;;;;;16.58;10.13;;;;;;;;;;4995254;28;20413;-78
2022/01/08 10:28:58;;;;;;;16.90;11.23;;;;;;;;;;4997451;28;20033;-77
2022/01/08 10:31:27;;;;;;;38.65;24.30;;;;;;;;;;4997454;28;20034;-78
2022/01/08 10:34:08;;;;;;;34.83;23.23;;;;;;;;;;4999133;28;20152;-77
2022/01/08 10:36:35;;;;;;;20.75;12.98;;;;;;;;;;4998551;28;20025;-77
2022/01/08 10:39:02;;;;;;;19.85;12.13;;;;;;;;;;4998933;28;20033;-77
2022/01/08 10:41:28;;;;;;;24.05;15.55;;;;;;;;;;4998693;28;20023;-77
2022/01/08 10:44:07;;;;;;;28.80;19.85;;;;;;;;;;4998827;28;20029;-78
2022/01/08 10:46:33;;;;;;;25.57;15.33;;;;;;;;;;4997236;28;20157;-77
2022/01/08 10:48:58;;;;;;;32.85;18.70;;;;;;;;;;4999084;28;20462;-77
2022/01/08 10:51:26;;;;;;;21.80;14.10;;;;;;;;;;4997255;28;20030;-77
2022/01/08 10:54:02;;;;;;;22.42;13.63;;;;;;;;;;4999239;28;20022;-78
2022/01/08 10:56:29;;;;;;;35.33;17.63;;;;;;;;;;4997085;28;20037;-77
2022/01/08 10:58:59;;;;;;;20.05;12.38;;;;;;;;;;4998461;28;20112;-77
2022/01/08 11:01:43;;;;;;;22.15;12.77;;;;;;;;;;4997298;28;20034;-78
2022/01/08 11:04:11;;;;;;;18.40;12.57;;;;;;;;;;4998879;28;20026;-78
2022/01/08 11:06:50;;;;;;;17.13;10.75;;;;;;;;;;4998388;28;20014;-77
2022/01/08 11:09:15;;;;;;;13.68;8.95;;;;;;;;;;4996499;28;20125;-78
2022/01/08 11:11:42;;;;;;;19.00;13.25;;;;;;;;;;5013170;28;20181;-77
2022/01/08 11:14:08;;;;;;;17.65;13.02;;;;;;;;;;4997576;28;20670;-78
2022/01/08 11:16:37;;;;;;;26.58;17.90;;;;;;;;;;4996715;28;20080;-78
2022/01/08 11:19:03;;;;;;;12.43;8.20;;;;;;;;;;4999509;28;20697;-78
2022/01/08 11:21:30;;;;;;;23.40;17.02;;;;;;;;;;4998900;28;20548;-78
2022/01/08 11:23:57;;;;;;;15.98;10.60;;;;;;;;;;4998858;28;20103;-78
2022/01/08 11:26:22;;;;;;;13.75;9.93;;;;;;;;;;4998178;28;20029;-78
2022/01/08 11:28:48;;;;;;;14.43;9.07;;;;;;;;;;4996043;28;20030;-78
2022/01/08 11:31:15;;;;;;;13.68;9.02;;;;;;;;;;4997800;28;20060;-78
2022/01/08 11:33:44;;;;;;;10.65;7.43;;;;;;;;;;4997541;28;20484;-77
2022/01/08 11:36:10;;;;;;;21.27;13.63;;;;;;;;;;4996724;28;20109;-78
2022/01/08 11:38:36;;;;;;;12.68;7.97;;;;;;;;;;4994898;28;20665;-78
2022/01/08 11:41:02;;;;;;;16.55;10.93;;;;;;;;;;4996449;28;20030;-76
2022/01/08 11:43:28;;;;;;;164.07;87.40;;;;;;;;;;4998325;28;20054;-77
2022/01/08 11:45:53;;;;;;;66.65;32.08;;;;;;;;;;4995944;28;20026;-77
2022/01/08 11:48:21;;;;;;;48.05;25.85;;;;;;;;;;4996225;28;20022;-77
2022/01/08 11:50:57;;;;;;;16.48;11.52;;;;;;;;;;4997296;28;20037;-78
2022/01/08 11:53:23;;;;;;;11.52;10.10;;;;;;;;;;4997430;28;20029;-78
2022/01/08 11:56:09;;;;;;;18.05;13.00;;;;;;;;;;4997827;28;20536;-78
2022/01/08 11:58:35;;;;;;;13.05;9.98;;;;;;;;;;4997045;28;20064;-77
2022/01/08 12:01:14;;;;;;;20.67;13.75;;;;;;;;;;4997320;28;20076;-78
2022/01/08 12:03:41;;;;;;;10.18;8.77;;;;;;;;;;4997582;28;20022;-77
2022/01/08 12:06:18;;;;;;;27.48;18.27;;;;;;;;;;5011827;28;20032;-78
2022/01/08 12:08:57;;;;;;;30.40;19.77;;;;;;;;;;4997975;28;20181;-78
2022/01/08 12:11:23;;;;;;;15.25;11.55;;;;;;;;;;4998011;28;20030;-78
2022/01/08 12:13:49;;;;;;;17.38;10.52;;;;;;;;;;4996969;28;20025;-77
2022/01/08 12:16:33;;;;;;;13.48;10.35;;;;;;;;;;4995338;28;20030;-78
2022/01/08 12:18:59;;;;;;;13.80;10.07;;;;;;;;;;4996611;28;20026;-78
2022/01/08 12:21:32;;;;;;;13.27;9.82;;;;;;;;;;4997135;28;20420;-78
2022/01/08 12:24:00;;;;;;;26.38;15.93;;;;;;;;;;4996754;28;20025;-78
2022/01/08 12:26:26;;;;;;;29.40;17.40;;;;;;;;;;4995436;28;20026;-77
2022/01/08 12:29:00;;;;;;;19.33;13.23;;;;;;;;;;4997622;28;20029;-78
2022/01/08 12:31:26;;;;;;;63.50;42.55;;;;;;;;;;4995225;28;20034;-78
2022/01/08 12:34:15;;;;;;;40.17;23.63;;;;;;;;;;4995093;28;20424;-77
2022/01/08 12:36:58;;;;;;;74.15;44.78;;;;;;;;;;4995484;28;20045;-77
2022/01/08 12:39:25;;;;;;;42.33;24.48;;;;;;;;;;4994961;28;20026;-78
2022/01/08 12:42:11;;;;;;;77.13;49.10;;;;;;;;;;4994763;28;20050;-77
2022/01/08 12:44:38;;;;;;;61.08;33.25;;;;;;;;;;4996447;28;20025;-77
2022/01/08 12:47:03;;;;;;;67.82;41.95;;;;;;;;;;4996526;28;20033;-78
2022/01/08 12:49:29;;;;;;;53.13;32.65;;;;;;;;;;4995990;28;20034;-78
2022/01/08 12:51:55;;;;;;;65.55;43.20;;;;;;;;;;4997009;28;20549;-78
2022/01/08 12:54:21;;;;;;;34.33;20.52;;;;;;;;;;4996204;28;20026;-78
2022/01/08 12:56:53;;;;;;;43.70;26.90;;;;;;;;;;4994724;28;20037;-78
2022/01/08 12:59:19;;;;;;;75.05;43.65;;;;;;;;;;4995242;28;20053;-78
2022/01/08 13:01:45;;;;;;;87.07;49.22;;;;;;;;;;4994737;28;20030;-79
2022/01/08 13:04:16;;;;;;;56.47;33.50;;;;;;;;;;4995114;28;20544;-78
2022/01/08 13:06:42;;;;;;;65.93;40.33;;;;;;;;;;4996621;28;20018;-78
2022/01/08 13:09:08;;;;;;;40.40;26.45;;;;;;;;;;4995644;28;20687;-78
2022/01/08 13:11:34;;;;;;;46.63;28.98;;;;;;;;;;4994426;28;20814;-78
2022/01/08 13:14:02;;;;;;;56.65;33.65;;;;;;;;;;4995069;28;20040;-78
2022/01/08 13:16:28;;;;;;;53.38;33.50;;;;;;;;;;4994557;28;20188;-78
2022/01/08 13:18:56;;;;;;;32.42;20.05;;;;;;;;;;4996406;28;20544;-78
2022/01/08 13:21:30;;;;;;;31.85;20.45;;;;;;;;;;4994423;28;20378;-78
2022/01/08 13:23:56;;;;;;;28.75;16.80;;;;;;;;;;4996061;28;20423;-78
2022/01/08 13:26:30;;;;;;;30.45;19.45;;;;;;;;;;4995800;28;20033;-78
2022/01/08 13:28:56;;;;;;;27.98;17.80;;;;;;;;;;4976429;28;20094;-77
2022/01/08 13:31:37;;;;;;;54.05;29.65;;;;;;;;;;4976178;28;20038;-78
2022/01/08 13:34:02;;;;;;;46.92;28.83;;;;;;;;;;4975076;28;20026;-77
2022/01/08 13:36:27;;;;;;;46.38;30.48;;;;;;;;;;4974327;28;20044;-78
2022/01/08 13:38:53;;;;;;;43.78;23.70;;;;;;;;;;4975756;28;20474;-78
2022/01/08 13:41:19;;;;;;;34.60;21.33;;;;;;;;;;4975131;28;20362;-77
2022/01/08 13:43:54;;;;;;;41.50;28.55;;;;;;;;;;4975946;28;20050;-78
2022/01/08 13:46:20;;;;;;;41.92;25.15;;;;;;;;;;4975905;28;20369;-78
2022/01/08 13:48:45;;;;;;;43.50;29.05;;;;;;;;;;4974597;28;20029;-78
2022/01/08 13:51:11;;;;;;;47.67;29.67;;;;;;;;;;4974220;28;20027;-78
2022/01/08 13:53:36;;;;;;;51.08;31.08;;;;;;;;;;4974547;28;20568;-77
2022/01/08 13:56:02;;;;;;;38.85;24.60;;;;;;;;;;4974603;28;20072;-77
2022/01/08 13:58:30;;;;;;;47.78;31.75;;;;;;;;;;4974151;28;20026;-76
2022/01/08 14:01:05;;;;;;;30.73;19.08;;;;;;;;;;4974921;28;20026;-77
2022/01/08 14:03:52;;;;;;;41.38;27.42;;;;;;;;;;4975507;28;20382;-77
2022/01/08 14:06:27;;;;;;;32.50;20.15;;;;;;;;;;4974392;28;20026;-77
2022/01/08 14:08:55;;;;;;;30.98;18.98;;;;;;;;;;4974250;28;20025;-77
2022/01/08 14:11:21;;;;;;;56.05;31.73;;;;;;;;;;4975794;28;20062;-78
2022/01/08 14:13:48;;;;;;;36.00;21.02;;;;;;;;;;4974205;28;20042;-77
2022/01/08 14:16:14;;;;;;;44.22;26.85;;;;;;;;;;4974436;28;20022;-77
2022/01/08 14:18:39;;;;;;;53.03;32.17;;;;;;;;;;4973783;28;20041;-77
2022/01/08 14:21:15;;;;;;;56.83;35.10;;;;;;;;;;4974134;28;20489;-77
2022/01/08 14:23:41;;;;;;;51.13;32.25;;;;;;;;;;4976864;28;20022;-76
2022/01/08 14:26:13;;;;;;;39.53;24.15;;;;;;;;;;4974969;28;20022;-77
2022/01/08 14:28:38;;;;;;;31.00;18.65;;;;;;;;;;4975463;28;20058;-77
2022/01/08 14:31:12;;;;;;;44.25;28.42;;;;;;;;;;4974278;28;20058;-77
2022/01/08 14:33:56;;;;;;;67.85;42.28;;;;;;;;;;4973948;28;20029;-77
2022/01/08 14:36:22;;;;;;;43.38;26.77;;;;;;;;;;4976113;28;20018;-77
2022/01/08 14:38:52;;;;;;;59.22;36.40;;;;;;;;;;4990627;28;20033;-77
2022/01/08 14:41:17;;;;;;;;;;;;;;;;;;4975872;28;20057;-77
2022/01/08 14:43:42;;;;;;;35.30;22.67;;;;;;;;;;4976709;28;19968;-76